Henrietta, New York
Current Conditions -  °F | °C
As of 3:54 PM on Thursday 27 Nov 2014 (Local Time) from KROC Reporting Station
Light Snow Light Snow  
Wind Chill: 27°   Ceiling: 4000
Heat Index: 33°   Visibility: 8mi
Dew Point: 26°   Wind: 7mph
Humidity: 75%   Direction: 290°WNW
Pressure: 30.05"   Gusts: NA
Location:  43.06°N, 77.61°W
Report Text: KROC 272054Z 29006KT 8SM -SN SCT020 BKN040 BKN070 01/M03 A3005 RMK AO2 SLP184 P0000 60000 T00061033 53002
Loading
Personal Weather Stations






























Interactive Weather Map New forecast layout! Learn more

10-Day Weather Forecast

Advertisements
Track Severe Weather on mobile